createdAt,value
2023-05-01T00:01:16.673Z,21.50
2023-05-01T00:03:43.884Z,21.40
2023-05-01T00:06:11.433Z,21.40
2023-05-01T00:08:38.379Z,21.50
2023-05-01T00:11:09.997Z,21.40
2023-05-01T00:13:38.503Z,21.40
2023-05-01T00:16:09.811Z,21.40
2023-05-01T00:18:37.070Z,21.50
2023-05-01T00:21:04.114Z,21.50
2023-05-01T00:23:31.051Z,21.40
2023-05-01T00:25:58.085Z,21.50
2023-05-01T00:28:24.994Z,21.40
2023-05-01T00:30:52.268Z,21.40
2023-05-01T00:33:19.520Z,21.40
2023-05-01T00:35:48.118Z,21.40
2023-05-01T00:38:15.126Z,21.50
2023-05-01T00:40:46.358Z,21.40
2023-05-01T00:43:13.804Z,21.50
2023-05-01T00:45:44.872Z,21.50
2023-05-01T00:48:12.685Z,21.40
2023-05-01T00:50:40.487Z,21.50
2023-05-01T00:53:07.500Z,21.40
2023-05-01T00:55:35.957Z,21.40
2023-05-01T00:58:03.770Z,21.40
2023-05-01T01:00:32.256Z,21.40
2023-05-01T01:03:00.466Z,21.40
2023-05-01T01:05:30.719Z,21.40
2023-05-01T01:08:20.592Z,21.40
2023-05-01T01:10:55.020Z,21.40
2023-05-01T01:13:24.654Z,21.40
2023-05-01T01:16:14.602Z,21.40
2023-05-01T01:18:57.015Z,21.40
2023-05-01T01:21:28.421Z,21.40
2023-05-01T01:24:32.656Z,21.40
2023-05-01T01:27:19.446Z,21.40
2023-05-01T01:30:22.195Z,21.40
2023-05-01T01:33:06.864Z,21.40
2023-05-01T01:35:35.030Z,21.40
2023-05-01T01:38:19.665Z,21.40
2023-05-01T01:41:12.381Z,21.40
2023-05-01T01:43:44.124Z,21.40
2023-05-01T01:46:11.774Z,21.40
2023-05-01T01:48:44.763Z,21.40
2023-05-01T01:51:19.110Z,21.40
2023-05-01T01:53:51.909Z,21.40
2023-05-01T01:56:22.141Z,21.40
2023-05-01T01:58:51.790Z,21.40
2023-05-01T02:01:19.778Z,21.40
2023-05-01T02:03:50.954Z,21.40
2023-05-01T02:06:18.184Z,21.40
2023-05-01T02:08:49.733Z,21.40
2023-05-01T02:11:21.210Z,21.40
2023-05-01T02:13:51.967Z,21.40
2023-05-01T02:16:21.871Z,21.40
2023-05-01T02:18:50.579Z,21.40
2023-05-01T02:21:18.689Z,21.40
2023-05-01T02:23:45.771Z,21.40
2023-05-01T02:26:19.398Z,21.40
2023-05-01T02:28:46.961Z,21.40
2023-05-01T02:31:14.066Z,21.40
2023-05-01T02:33:41.293Z,21.40
2023-05-01T02:36:09.584Z,21.40
2023-05-01T02:38:36.455Z,21.30
2023-05-01T02:41:04.358Z,21.40
2023-05-01T02:43:33.920Z,21.40
2023-05-01T02:46:04.826Z,21.40
2023-05-01T02:48:36.131Z,21.40
2023-05-01T02:51:03.672Z,21.30
2023-05-01T02:53:32.887Z,21.30
2023-05-01T02:55:59.830Z,21.30
2023-05-01T02:58:27.267Z,21.30
2023-05-01T03:00:55.357Z,21.30
2023-05-01T03:03:22.227Z,21.30
2023-05-01T03:05:49.262Z,21.30
2023-05-01T03:08:16.148Z,21.30
2023-05-01T03:10:44.361Z,21.30
2023-05-01T03:13:11.888Z,21.30
2023-05-01T03:15:39.110Z,21.30
2023-05-01T03:18:07.639Z,21.30
2023-05-01T03:20:34.743Z,21.30
2023-05-01T03:23:02.331Z,21.30
2023-05-01T03:25:29.398Z,21.30
2023-05-01T03:27:57.577Z,21.30
2023-05-01T03:30:24.659Z,21.30
2023-05-01T03:32:52.054Z,21.30
2023-05-01T03:35:19.130Z,21.30
2023-05-01T03:37:46.426Z,21.30
2023-05-01T03:40:13.796Z,21.30
2023-05-01T03:42:41.256Z,21.30
2023-05-01T03:45:08.992Z,21.30
2023-05-01T03:47:37.522Z,21.30
2023-05-01T03:50:05.021Z,21.30
2023-05-01T03:52:31.961Z,21.30
2023-05-01T03:54:58.853Z,21.30
2023-05-01T03:57:25.816Z,21.30
2023-05-01T03:59:53.396Z,21.30
2023-05-01T04:02:20.830Z,21.30
2023-05-01T04:04:50.058Z,21.30
2023-05-01T04:07:17.089Z,21.30
2023-05-01T04:09:44.338Z,21.30
2023-05-01T04:12:11.327Z,21.30
2023-05-01T04:14:38.203Z,21.30
2023-05-01T04:17:05.593Z,21.30
2023-05-01T04:19:32.449Z,21.30
2023-05-01T04:21:59.912Z,21.30
2023-05-01T04:24:26.918Z,21.30
2023-05-01T04:26:53.860Z,21.40
2023-05-01T04:29:21.282Z,21.40
2023-05-01T04:31:51.324Z,21.40
2023-05-01T04:34:18.323Z,21.40
2023-05-01T04:36:45.173Z,21.40
2023-05-01T04:39:13.078Z,21.40
2023-05-01T04:41:40.003Z,21.40
2023-05-01T04:44:06.964Z,21.40
2023-05-01T04:46:36.288Z,21.40
2023-05-01T04:49:03.706Z,21.40
2023-05-01T04:51:31.699Z,21.50
2023-05-01T04:53:58.845Z,21.50
2023-05-01T04:56:27.010Z,21.50
2023-05-01T04:59:00.293Z,21.50
2023-05-01T05:01:27.248Z,21.50
2023-05-01T05:03:54.305Z,21.60
2023-05-01T05:06:21.728Z,21.60
2023-05-01T05:08:52.157Z,21.70
2023-05-01T05:11:20.023Z,21.80
2023-05-01T05:13:50.084Z,21.80
2023-05-01T05:16:19.904Z,21.90
2023-05-01T05:18:46.944Z,21.90
2023-05-01T05:21:14.055Z,22.00
2023-05-01T05:23:43.108Z,22.00
2023-05-01T05:26:11.013Z,22.00
2023-05-01T05:28:38.031Z,22.10
2023-05-01T05:31:05.032Z,22.10
2023-05-01T05:33:32.048Z,22.10
2023-05-01T05:36:00.317Z,22.10
2023-05-01T05:38:27.309Z,22.20
2023-05-01T05:40:55.318Z,22.20
2023-05-01T05:43:22.241Z,22.20
2023-05-01T05:45:50.337Z,22.20
2023-05-01T05:48:17.362Z,22.20
2023-05-01T05:50:44.426Z,22.20
2023-05-01T05:53:11.870Z,22.30
2023-05-01T05:55:38.857Z,22.30
2023-05-01T05:58:05.943Z,22.30
2023-05-01T06:00:33.284Z,22.30
2023-05-01T06:03:00.300Z,22.30
2023-05-01T06:05:27.841Z,22.40
2023-05-01T06:07:55.033Z,22.30
2023-05-01T06:10:23.208Z,22.40
2023-05-01T06:12:56.945Z,22.40
2023-05-01T06:15:32.177Z,22.40
2023-05-01T06:17:59.207Z,22.40
2023-05-01T06:20:27.446Z,22.40
2023-05-01T06:22:54.285Z,22.40
2023-05-01T06:25:21.474Z,22.40
2023-05-01T06:27:48.297Z,22.40
2023-05-01T06:30:15.242Z,22.40
2023-05-01T06:32:43.843Z,22.40
2023-05-01T06:35:12.037Z,22.40
2023-05-01T06:37:39.873Z,22.50
2023-05-01T06:40:08.500Z,22.40
2023-05-01T06:42:36.754Z,22.40
2023-05-01T06:45:04.802Z,22.40
2023-05-01T06:47:32.718Z,22.40
2023-05-01T06:50:04.446Z,22.40
2023-05-01T06:52:35.606Z,22.50
2023-05-01T06:55:02.617Z,22.40
2023-05-01T06:57:29.614Z,22.40
2023-05-01T06:59:59.440Z,22.40
2023-05-01T07:02:27.870Z,22.40
2023-05-01T07:04:54.791Z,22.40
2023-05-01T07:07:21.977Z,22.40
2023-05-01T07:09:49.427Z,22.40
2023-05-01T07:12:16.292Z,22.50
2023-05-01T07:14:43.264Z,22.40
2023-05-01T07:17:10.333Z,22.40
2023-05-01T07:19:37.286Z,22.50
2023-05-01T07:22:05.779Z,22.50
2023-05-01T07:24:34.226Z,22.50
2023-05-01T07:27:01.164Z,22.40
2023-05-01T07:29:28.721Z,22.40
2023-05-01T07:31:55.910Z,22.40
2023-05-01T07:34:23.027Z,22.40
2023-05-01T07:36:49.983Z,22.40
2023-05-01T07:39:17.903Z,22.40
2023-05-01T07:41:44.883Z,22.40
2023-05-01T07:44:12.053Z,22.50
2023-05-01T07:46:39.053Z,22.50
2023-05-01T07:49:06.116Z,22.40
2023-05-01T07:51:33.447Z,22.40
2023-05-01T07:54:04.852Z,22.40
2023-05-01T07:56:32.139Z,22.40
2023-05-01T07:59:01.104Z,22.40
2023-05-01T08:01:28.080Z,22.40
2023-05-01T08:03:55.112Z,22.40
2023-05-01T08:06:23.307Z,22.40
2023-05-01T08:08:50.352Z,22.40
2023-05-01T08:11:18.354Z,22.40
2023-05-01T08:13:45.619Z,22.40
2023-05-01T08:16:12.807Z,22.40
2023-05-01T08:18:39.774Z,22.40
2023-05-01T08:21:06.717Z,22.40
2023-05-01T08:23:33.643Z,22.30
2023-05-01T08:26:00.511Z,22.30
2023-05-01T08:28:27.417Z,22.30
2023-05-01T08:30:54.445Z,22.30
2023-05-01T08:33:22.538Z,22.30
2023-05-01T08:35:49.504Z,22.30
2023-05-01T08:38:16.416Z,22.30
2023-05-01T08:40:51.156Z,22.30
2023-05-01T08:43:19.861Z,22.30
2023-05-01T08:45:49.250Z,22.20
2023-05-01T08:48:18.750Z,22.20
2023-05-01T08:50:48.296Z,22.20
2023-05-01T08:53:20.312Z,22.20
2023-05-01T08:55:48.992Z,22.20
2023-05-01T08:58:19.316Z,22.20
2023-05-01T09:00:47.632Z,22.20
2023-05-01T09:03:15.382Z,22.20
2023-05-01T09:05:45.594Z,22.20
2023-05-01T09:08:12.870Z,22.20
2023-05-01T09:10:44.571Z,22.10
2023-05-01T09:13:11.540Z,22.10
2023-05-01T09:15:38.862Z,22.10
2023-05-01T09:18:05.955Z,22.10
2023-05-01T09:20:37.311Z,22.10
2023-05-01T09:23:07.739Z,22.10
2023-05-01T09:25:34.636Z,22.10
2023-05-01T09:28:01.962Z,22.20
2023-05-01T09:30:36.620Z,22.10
2023-05-01T09:33:08.458Z,22.10
2023-05-01T09:35:57.998Z,22.10
2023-05-01T09:38:29.234Z,22.10
2023-05-01T09:41:03.904Z,22.10
2023-05-01T09:43:31.622Z,22.10
2023-05-01T09:46:09.705Z,22.10
2023-05-01T09:48:38.115Z,22.10
2023-05-01T09:51:29.207Z,22.10
2023-05-01T09:54:00.309Z,22.10
2023-05-01T09:56:28.530Z,22.10
2023-05-01T09:58:59.249Z,22.10
2023-05-01T10:01:46.643Z,22.10
2023-05-01T10:04:14.336Z,22.10
2023-05-01T10:06:41.763Z,22.10
2023-05-01T10:09:16.979Z,22.10
2023-05-01T10:11:57.749Z,22.10
2023-05-01T10:14:27.163Z,22.20
2023-05-01T10:16:54.430Z,22.10
2023-05-01T10:19:21.956Z,22.10
2023-05-01T10:21:49.012Z,22.10
2023-05-01T10:24:17.357Z,22.10
2023-05-01T10:26:44.931Z,22.10
2023-05-01T10:29:15.141Z,22.10
2023-05-01T10:31:42.636Z,22.10
2023-05-01T10:34:15.935Z,22.10
2023-05-01T10:36:47.572Z,22.10
2023-05-01T10:39:37.346Z,22.10
2023-05-01T10:42:06.245Z,22.10
2023-05-01T10:44:34.921Z,22.10
2023-05-01T10:47:25.495Z,22.10
2023-05-01T10:50:13.071Z,22.10
2023-05-01T10:53:14.742Z,22.10
2023-05-01T10:55:43.920Z,22.10
2023-05-01T10:58:14.087Z,22.10
2023-05-01T11:00:41.396Z,22.10
2023-05-01T11:03:23.557Z,22.10
2023-05-01T11:06:06.446Z,22.10
2023-05-01T11:08:34.380Z,22.10
2023-05-01T11:11:19.988Z,22.10
2023-05-01T11:14:06.841Z,22.10
2023-05-01T11:16:40.064Z,22.10
2023-05-01T11:19:25.961Z,22.00
2023-05-01T11:21:57.173Z,22.10
2023-05-01T11:24:33.114Z,22.10
2023-05-01T11:27:03.007Z,22.10
2023-05-01T11:29:33.528Z,22.10
2023-05-01T11:32:01.240Z,22.00
2023-05-01T11:34:34.810Z,22.10
2023-05-01T11:37:02.989Z,22.00
2023-05-01T11:39:29.971Z,22.00
2023-05-01T11:42:23.015Z,22.00
2023-05-01T11:45:12.528Z,22.00
2023-05-01T11:47:39.939Z,22.00
2023-05-01T11:50:10.944Z,22.00
2023-05-01T11:52:55.016Z,22.00
2023-05-01T11:55:30.680Z,22.00
2023-05-01T11:57:58.091Z,22.00
2023-05-01T12:00:37.511Z,22.00
2023-05-01T12:03:07.315Z,22.00
2023-05-01T12:05:37.372Z,22.00
2023-05-01T12:08:20.618Z,22.00
2023-05-01T12:10:53.054Z,22.00
2023-05-01T12:13:20.879Z,22.00
2023-05-01T12:15:51.099Z,22.00
2023-05-01T12:18:21.629Z,21.90
2023-05-01T12:20:52.161Z,21.90
2023-05-01T12:23:29.858Z,21.90
2023-05-01T12:25:58.177Z,21.90
2023-05-01T12:28:27.767Z,21.90
2023-05-01T12:31:03.454Z,21.90
2023-05-01T12:33:32.025Z,21.80
2023-05-01T12:36:11.437Z,21.80
2023-05-01T12:38:38.487Z,21.90
2023-05-01T12:41:10.035Z,21.90
2023-05-01T12:43:38.356Z,21.90
2023-05-01T12:46:06.777Z,21.90
2023-05-01T12:48:41.437Z,21.90
2023-05-01T12:51:08.801Z,21.90
2023-05-01T12:53:43.796Z,21.90
2023-05-01T12:56:24.116Z,21.90
2023-05-01T12:58:52.086Z,21.90
2023-05-01T13:01:27.423Z,21.90
2023-05-01T13:03:58.188Z,21.90
2023-05-01T13:06:34.621Z,21.90
2023-05-01T13:09:10.489Z,21.80
2023-05-01T13:11:38.088Z,21.80
2023-05-01T13:14:09.902Z,21.80
2023-05-01T13:16:46.883Z,21.80
2023-05-01T13:19:14.450Z,21.80
2023-05-01T13:21:49.535Z,21.80
2023-05-01T13:24:16.607Z,21.80
2023-05-01T13:26:46.229Z,21.80
2023-05-01T13:29:16.504Z,21.80
2023-05-01T13:31:45.230Z,21.80
2023-05-01T13:34:18.417Z,21.80
2023-05-01T13:36:46.418Z,21.80
2023-05-01T13:39:21.415Z,21.80
2023-05-01T13:41:49.214Z,21.80
2023-05-01T13:44:17.456Z,21.80
2023-05-01T13:46:46.343Z,21.80
2023-05-01T13:49:14.685Z,21.80
2023-05-01T13:51:44.422Z,21.70
2023-05-01T13:54:12.562Z,21.70
2023-05-01T13:56:41.288Z,21.70
2023-05-01T13:59:09.193Z,21.70
2023-05-01T14:01:48.540Z,21.70
2023-05-01T14:04:21.795Z,21.70
2023-05-01T14:06:48.809Z,21.70
2023-05-01T14:09:19.335Z,21.80
2023-05-01T14:11:49.798Z,21.70
2023-05-01T14:14:18.208Z,21.70
2023-05-01T14:16:50.809Z,21.70
2023-05-01T14:19:18.572Z,21.70
2023-05-01T14:21:45.732Z,21.70
2023-05-01T14:24:15.155Z,21.70
2023-05-01T14:26:44.480Z,21.70
2023-05-01T14:29:27.212Z,21.70
2023-05-01T14:31:55.919Z,21.70
2023-05-01T14:34:23.079Z,21.60
2023-05-01T14:36:50.575Z,21.60
2023-05-01T14:39:18.646Z,21.70
2023-05-01T14:41:46.591Z,21.60
2023-05-01T14:44:19.452Z,21.70
2023-05-01T14:46:51.632Z,21.70
2023-05-01T14:49:20.722Z,21.60
2023-05-01T14:51:48.233Z,21.70
2023-05-01T14:54:17.168Z,21.60
2023-05-01T14:56:44.735Z,21.60
2023-05-01T14:59:12.528Z,21.70
2023-05-01T15:01:40.279Z,21.60
2023-05-01T15:04:07.810Z,21.60
2023-05-01T15:06:35.113Z,21.60
2023-05-01T15:09:02.692Z,21.60
2023-05-01T15:11:30.516Z,21.60
2023-05-01T15:13:57.413Z,21.60
2023-05-01T15:16:24.535Z,21.60
2023-05-01T15:18:51.552Z,21.60
2023-05-01T15:21:18.470Z,21.60
2023-05-01T15:23:46.347Z,21.60
2023-05-01T15:26:14.736Z,21.70
2023-05-01T15:28:41.798Z,21.60
2023-05-01T15:31:08.734Z,21.60
2023-05-01T15:33:35.912Z,21.60
2023-05-01T15:36:02.854Z,21.50
2023-05-01T15:38:31.011Z,21.60
2023-05-01T15:40:57.940Z,21.50
2023-05-01T15:43:25.145Z,21.50
2023-05-01T15:45:52.889Z,21.50
2023-05-01T15:48:20.003Z,21.60
2023-05-01T15:50:49.020Z,21.60
2023-05-01T15:53:17.270Z,21.50
2023-05-01T15:55:45.624Z,21.50
2023-05-01T15:58:13.523Z,21.50
2023-05-01T16:00:40.472Z,21.60
2023-05-01T16:03:09.189Z,21.50
2023-05-01T16:05:38.334Z,21.50
2023-05-01T16:08:06.476Z,21.50
2023-05-01T16:10:37.385Z,21.50
2023-05-01T16:13:08.659Z,21.60
2023-05-01T16:15:37.150Z,21.50
2023-05-01T16:18:05.065Z,21.50
2023-05-01T16:20:41.355Z,21.50
2023-05-01T16:23:08.746Z,21.50
2023-05-01T16:25:35.809Z,21.50
2023-05-01T16:28:07.601Z,21.50
2023-05-01T16:30:34.610Z,21.50
2023-05-01T16:33:03.253Z,21.50
2023-05-01T16:35:30.212Z,21.50
2023-05-01T16:37:59.964Z,21.40
2023-05-01T16:40:27.040Z,21.50
2023-05-01T16:42:54.890Z,21.50
2023-05-01T16:45:22.216Z,21.50
2023-05-01T16:47:49.501Z,21.50
2023-05-01T16:50:17.534Z,21.40
2023-05-01T16:52:44.501Z,21.50
2023-05-01T16:55:12.108Z,21.50
2023-05-01T16:57:39.286Z,21.40
2023-05-01T17:00:09.400Z,21.50
2023-05-01T17:02:37.141Z,21.50
2023-05-01T17:05:04.353Z,21.40
2023-05-01T17:07:32.973Z,21.40
2023-05-01T17:10:01.524Z,21.40
2023-05-01T17:12:29.327Z,21.40
2023-05-01T17:14:57.089Z,21.50
2023-05-01T17:17:25.090Z,21.40
2023-05-01T17:19:52.884Z,21.40
2023-05-01T17:22:19.979Z,21.40
2023-05-01T17:24:47.424Z,21.40
2023-05-01T17:27:16.529Z,21.40
2023-05-01T17:29:45.455Z,21.40
2023-05-01T17:32:14.440Z,21.40
2023-05-01T17:34:46.116Z,21.40
2023-05-01T17:37:13.674Z,21.40
2023-05-01T17:39:40.666Z,21.40
2023-05-01T17:42:07.546Z,21.40
2023-05-01T17:44:35.264Z,21.40
2023-05-01T17:47:04.912Z,21.40
2023-05-01T17:49:32.047Z,21.40
2023-05-01T17:51:59.220Z,21.40
2023-05-01T17:54:26.276Z,21.40
2023-05-01T17:56:53.118Z,21.40
2023-05-01T17:59:19.999Z,21.40
2023-05-01T18:01:48.296Z,21.40
2023-05-01T18:04:16.163Z,21.40
2023-05-01T18:06:43.147Z,21.40
2023-05-01T18:09:10.944Z,21.40
2023-05-01T18:11:38.223Z,21.40
2023-05-01T18:14:05.145Z,21.40
2023-05-01T18:16:32.525Z,21.40
2023-05-01T18:18:59.443Z,21.40
2023-05-01T18:21:29.952Z,21.40
2023-05-01T18:23:56.975Z,21.40
2023-05-01T18:26:26.664Z,21.40
2023-05-01T18:28:53.598Z,21.40
2023-05-01T18:31:23.812Z,21.40
2023-05-01T18:33:51.173Z,21.40
2023-05-01T18:36:18.161Z,21.30
2023-05-01T18:38:45.058Z,21.20
2023-05-01T18:41:12.081Z,21.30
2023-05-01T18:43:38.960Z,21.20
2023-05-01T18:46:05.981Z,21.20
2023-05-01T18:48:33.458Z,21.30
2023-05-01T18:51:08.349Z,21.30
2023-05-01T18:53:36.396Z,21.30
2023-05-01T18:56:03.538Z,21.30
2023-05-01T18:58:30.860Z,21.30
2023-05-01T19:00:57.902Z,21.30
2023-05-01T19:03:24.721Z,21.20
2023-05-01T19:05:52.689Z,21.30
2023-05-01T19:08:20.159Z,21.20
2023-05-01T19:10:47.288Z,21.30
2023-05-01T19:13:14.246Z,21.30
2023-05-01T19:15:41.625Z,21.20
2023-05-01T19:18:10.624Z,21.30
2023-05-01T19:20:38.727Z,21.20
2023-05-01T19:23:05.600Z,21.30
2023-05-01T19:25:33.656Z,21.30
2023-05-01T19:28:02.207Z,21.30
2023-05-01T19:30:32.292Z,21.30
2023-05-01T19:32:59.956Z,21.30
2023-05-01T19:35:27.016Z,21.30
2023-05-01T19:38:00.303Z,21.30
2023-05-01T19:40:32.430Z,21.30
2023-05-01T19:42:59.524Z,21.30
2023-05-01T19:45:27.370Z,21.30
2023-05-01T19:47:58.501Z,21.30
2023-05-01T19:50:25.582Z,21.30
2023-05-01T19:52:53.253Z,21.30
2023-05-01T19:55:24.192Z,21.30
2023-05-01T19:57:51.961Z,21.30
2023-05-01T20:00:20.448Z,21.30
2023-05-01T20:02:49.939Z,21.30
2023-05-01T20:05:16.995Z,21.30
2023-05-01T20:07:45.404Z,21.30
2023-05-01T20:10:12.456Z,21.30
2023-05-01T20:12:41.367Z,21.30
2023-05-01T20:15:09.034Z,21.30
2023-05-01T20:17:36.125Z,21.30
2023-05-01T20:20:04.462Z,21.30
2023-05-01T20:22:34.466Z,21.20
2023-05-01T20:25:02.980Z,21.20
2023-05-01T20:27:32.411Z,21.20
2023-05-01T20:30:03.969Z,21.20
2023-05-01T20:32:30.858Z,21.20
2023-05-01T20:35:00.375Z,21.20
2023-05-01T20:37:27.338Z,21.20
2023-05-01T20:39:56.028Z,21.20
2023-05-01T20:42:22.993Z,21.20
2023-05-01T20:44:50.906Z,21.20
2023-05-01T20:47:21.904Z,21.20
2023-05-01T20:49:49.675Z,21.20
2023-05-01T20:52:17.809Z,21.20
2023-05-01T20:54:45.061Z,21.20
2023-05-01T20:57:13.031Z,21.20
2023-05-01T20:59:49.518Z,21.20
2023-05-01T21:02:17.328Z,21.20
2023-05-01T21:04:48.631Z,21.20
2023-05-01T21:07:21.855Z,21.20
2023-05-01T21:09:51.388Z,21.20
2023-05-01T21:12:18.320Z,21.20
2023-05-01T21:14:45.233Z,21.20
2023-05-01T21:17:12.805Z,21.20
2023-05-01T21:19:44.933Z,21.20
2023-05-01T21:22:20.256Z,21.30
2023-05-01T21:24:54.319Z,21.30
2023-05-01T21:27:22.504Z,21.30
2023-05-01T21:29:57.049Z,21.30
2023-05-01T21:32:33.979Z,21.30
2023-05-01T21:35:01.841Z,21.30
2023-05-01T21:37:29.762Z,21.30
2023-05-01T21:40:00.583Z,21.30
2023-05-01T21:42:35.234Z,21.40
2023-05-01T21:45:10.341Z,21.30
2023-05-01T21:47:43.617Z,21.30
2023-05-01T21:50:17.122Z,21.30
2023-05-01T21:52:45.865Z,21.30
2023-05-01T21:55:21.743Z,21.30
2023-05-01T21:57:53.723Z,21.30
2023-05-01T22:00:22.080Z,21.30
2023-05-01T22:02:52.768Z,21.30
2023-05-01T22:05:23.007Z,21.30
2023-05-01T22:07:54.562Z,21.30
2023-05-01T22:10:21.552Z,21.30
2023-05-01T22:12:50.307Z,21.30
2023-05-01T22:15:17.379Z,21.30
2023-05-01T22:17:45.997Z,21.30
2023-05-01T22:20:13.370Z,21.30
2023-05-01T22:22:41.696Z,21.30
2023-05-01T22:25:14.454Z,21.30
2023-05-01T22:27:41.483Z,21.30
2023-05-01T22:30:08.751Z,21.30
2023-05-01T22:32:36.084Z,21.30
2023-05-01T22:35:03.993Z,21.30
2023-05-01T22:37:31.109Z,21.30
2023-05-01T22:39:59.694Z,21.30
2023-05-01T22:42:26.886Z,21.30
2023-05-01T22:44:53.767Z,21.30
2023-05-01T22:47:20.754Z,21.30
2023-05-01T22:49:47.759Z,21.30
2023-05-01T22:52:15.231Z,21.30
2023-05-01T22:54:42.096Z,21.30
2023-05-01T22:57:10.130Z,21.30
2023-05-01T22:59:37.653Z,21.30
2023-05-01T23:02:06.695Z,21.30
2023-05-01T23:04:33.834Z,21.30
2023-05-01T23:07:00.911Z,21.30
2023-05-01T23:09:33.129Z,21.30
2023-05-01T23:12:03.884Z,21.30
2023-05-01T23:14:31.335Z,21.30
2023-05-01T23:16:59.285Z,21.30
2023-05-01T23:19:26.806Z,21.30
2023-05-01T23:22:10.877Z,21.30
2023-05-01T23:24:50.906Z,21.30
2023-05-01T23:27:19.225Z,21.30
2023-05-01T23:30:02.203Z,21.30
2023-05-01T23:32:31.436Z,21.30
2023-05-01T23:35:09.787Z,21.30
2023-05-01T23:37:36.768Z,21.30
2023-05-01T23:40:04.394Z,21.30
2023-05-01T23:42:31.673Z,21.30
2023-05-01T23:44:59.819Z,21.30
2023-05-01T23:47:27.336Z,21.30
2023-05-01T23:49:54.331Z,21.30
2023-05-01T23:52:21.375Z,21.30
2023-05-01T23:54:48.292Z,21.30
2023-05-01T23:57:15.185Z,21.30
2023-05-01T23:59:43.461Z,21.30
